createdAt,value
2022-12-16T00:04:21.385Z,16.05
2022-12-16T00:09:24.201Z,16.92
2022-12-16T00:14:29.174Z,16.58
2022-12-16T00:19:32.617Z,17.10
2022-12-16T00:24:35.420Z,17.20
2022-12-16T00:29:39.545Z,17.90
2022-12-16T00:34:42.397Z,17.73
2022-12-16T00:39:45.191Z,17.42
2022-12-16T00:44:49.360Z,16.17
2022-12-16T00:49:52.165Z,17.25
2022-12-16T00:54:55.068Z,17.05
2022-12-16T00:59:59.202Z,17.42
2022-12-16T01:05:02.098Z,16.73
2022-12-16T01:10:06.363Z,17.17
2022-12-16T01:15:13.091Z,17.88
2022-12-16T01:20:15.873Z,18.05
2022-12-16T01:25:18.776Z,17.80
2022-12-16T01:30:24.245Z,18.38
2022-12-16T01:35:54.786Z,17.98
2022-12-16T01:40:51.566Z,19.02
2022-12-16T01:46:03.439Z,18.52
2022-12-16T01:51:09.387Z,18.13
2022-12-16T01:56:15.516Z,18.52
2022-12-16T02:01:19.798Z,17.33
2022-12-16T02:06:22.704Z,17.48
2022-12-16T02:11:40.383Z,17.77
2022-12-16T02:16:52.184Z,17.40
2022-12-16T02:22:07.542Z,17.73
2022-12-16T02:27:40.485Z,16.85
2022-12-16T02:32:54.656Z,17.42
2022-12-16T02:38:06.639Z,16.83
2022-12-16T02:43:17.219Z,18.30
2022-12-16T02:48:21.487Z,17.95
2022-12-16T02:53:24.562Z,18.20
2022-12-16T02:58:37.036Z,18.10
2022-12-16T03:03:47.146Z,17.60
2022-12-16T03:08:54.317Z,17.65
2022-12-16T03:13:58.702Z,17.23
2022-12-16T03:19:08.138Z,17.10
2022-12-16T03:24:13.778Z,17.02
2022-12-16T03:29:23.563Z,18.00
2022-12-16T03:34:34.395Z,17.83
2022-12-16T03:39:42.981Z,16.88
2022-12-16T03:44:48.847Z,17.55
2022-12-16T03:49:53.002Z,18.42
2022-12-16T03:54:55.839Z,18.15
2022-12-16T03:59:59.040Z,17.83
2022-12-16T04:05:03.163Z,18.38
2022-12-16T04:10:07.397Z,18.83
2022-12-16T04:15:28.577Z,18.92
2022-12-16T04:20:52.015Z,17.92
2022-12-16T04:25:57.898Z,17.92
2022-12-16T04:31:00.898Z,18.17
2022-12-16T04:36:23.421Z,17.15
2022-12-16T04:41:43.516Z,17.35
2022-12-16T04:47:03.852Z,17.23
2022-12-16T04:52:25.773Z,18.23
2022-12-16T04:57:46.186Z,18.52
2022-12-16T05:03:07.641Z,18.70
2022-12-16T05:08:29.291Z,18.88
2022-12-16T05:13:49.603Z,19.23
2022-12-16T05:19:10.167Z,18.40
2022-12-16T05:24:33.660Z,19.00
2022-12-16T05:29:54.112Z,18.70
2022-12-16T05:35:14.545Z,18.90
2022-12-16T05:40:36.362Z,19.05
2022-12-16T05:45:58.110Z,19.98
2022-12-16T05:51:18.182Z,18.98
2022-12-16T05:56:39.991Z,18.92
2022-12-16T06:02:00.234Z,19.92
2022-12-16T06:07:20.542Z,18.98
2022-12-16T06:12:42.539Z,19.40
2022-12-16T06:18:09.629Z,20.10
2022-12-16T06:23:29.999Z,20.30
2022-12-16T06:28:51.450Z,18.10
2022-12-16T06:34:12.066Z,20.73
2022-12-16T06:39:33.609Z,18.92
2022-12-16T06:44:56.373Z,19.92
2022-12-16T06:50:17.183Z,21.27
2022-12-16T06:55:37.369Z,19.70
2022-12-16T07:00:59.315Z,21.00
2022-12-16T07:06:19.402Z,19.65
2022-12-16T07:11:39.750Z,19.42
2022-12-16T07:17:01.203Z,19.15
2022-12-16T07:22:22.359Z,19.80
2022-12-16T07:27:42.628Z,18.52
2022-12-16T07:33:08.292Z,19.85
2022-12-16T07:38:28.594Z,20.15
2022-12-16T07:43:48.778Z,19.73
2022-12-16T07:49:10.556Z,19.90
2022-12-16T07:54:31.947Z,20.55
2022-12-16T07:59:54.281Z,19.40
2022-12-16T08:05:15.814Z,20.40
2022-12-16T08:10:36.173Z,20.50
2022-12-16T08:15:56.678Z,19.13
2022-12-16T08:21:18.322Z,19.15
2022-12-16T08:26:39.072Z,18.77
2022-12-16T08:31:59.689Z,19.63
2022-12-16T08:37:21.835Z,18.92
2022-12-16T08:42:42.317Z,19.75
2022-12-16T08:48:02.570Z,18.80
2022-12-16T08:53:24.624Z,19.83
2022-12-16T08:58:44.787Z,19.55
2022-12-16T09:04:16.643Z,19.10
2022-12-16T09:09:40.708Z,20.63
2022-12-16T09:15:00.890Z,20.48
2022-12-16T09:20:21.290Z,20.33
2022-12-16T09:25:42.733Z,21.40
2022-12-16T09:31:02.949Z,21.35
2022-12-16T09:36:23.536Z,20.20
2022-12-16T09:41:59.549Z,21.88
2022-12-16T09:47:29.278Z,20.92
2022-12-16T09:52:54.929Z,22.02
2022-12-16T09:58:17.956Z,20.90
2022-12-16T10:03:43.090Z,22.48
2022-12-16T10:09:11.986Z,22.90
2022-12-16T10:14:42.368Z,22.55
2022-12-16T10:20:13.495Z,21.73
2022-12-16T10:25:44.425Z,21.13
2022-12-16T10:31:07.194Z,22.63
2022-12-16T10:36:32.519Z,21.38
2022-12-16T10:41:54.722Z,22.30
2022-12-16T10:47:17.532Z,23.55
2022-12-16T10:53:03.455Z,22.63
2022-12-16T10:58:35.893Z,20.98
2022-12-16T11:03:59.125Z,20.95
2022-12-16T11:09:48.460Z,23.48
2022-12-16T11:15:29.323Z,22.75
2022-12-16T11:21:32.797Z,23.15
2022-12-16T11:27:35.542Z,21.98
2022-12-16T11:33:02.458Z,23.02
2022-12-16T11:38:49.074Z,22.33
2022-12-16T11:44:11.249Z,22.35
2022-12-16T11:49:39.371Z,21.38
2022-12-16T11:55:12.821Z,23.60
2022-12-16T12:00:35.019Z,22.17
2022-12-16T12:05:59.751Z,21.45
2022-12-16T12:11:32.196Z,21.10
2022-12-16T12:17:05.809Z,20.35
2022-12-16T12:22:33.187Z,19.75
2022-12-16T12:28:06.715Z,20.27
2022-12-16T12:33:49.156Z,21.67
2022-12-16T12:39:21.252Z,21.13
2022-12-16T12:44:57.510Z,21.40
2022-12-16T12:50:23.418Z,21.27
2022-12-16T12:55:53.589Z,22.27
2022-12-16T13:01:17.870Z,20.55
2022-12-16T13:06:38.755Z,22.25
2022-12-16T13:12:37.623Z,23.05
2022-12-16T13:18:39.130Z,24.63
2022-12-16T13:24:01.425Z,25.90
2022-12-16T13:29:36.689Z,23.55
2022-12-16T13:34:58.211Z,24.25
2022-12-16T13:40:25.182Z,24.00
2022-12-16T13:45:51.016Z,25.25
2022-12-16T13:51:18.933Z,25.45
2022-12-16T13:56:45.008Z,26.73
2022-12-16T14:02:11.776Z,27.50
2022-12-16T14:07:45.737Z,26.02
2022-12-16T14:13:15.037Z,27.17
2022-12-16T14:18:46.203Z,27.15
2022-12-16T14:24:11.966Z,27.00
2022-12-16T14:29:39.760Z,27.83
2022-12-16T14:34:59.819Z,26.67
2022-12-16T14:40:22.670Z,28.02
2022-12-16T14:45:48.010Z,28.08
2022-12-16T14:51:08.215Z,28.50
2022-12-16T14:56:34.666Z,27.90
2022-12-16T15:01:54.983Z,29.88
2022-12-16T15:07:15.832Z,28.23
2022-12-16T15:12:41.152Z,28.33
2022-12-16T15:18:07.064Z,28.10
2022-12-16T15:23:39.279Z,29.75
2022-12-16T15:29:02.875Z,29.80
2022-12-16T15:34:40.636Z,29.70
2022-12-16T15:40:01.237Z,26.75
2022-12-16T15:45:24.110Z,30.08
2022-12-16T15:50:46.458Z,30.77
2022-12-16T15:56:14.380Z,29.58
2022-12-16T16:01:56.314Z,28.92
2022-12-16T16:07:20.349Z,28.83
2022-12-16T16:12:42.273Z,31.05
2022-12-16T16:18:07.390Z,29.45
2022-12-16T16:23:28.062Z,29.95
2022-12-16T16:28:48.574Z,31.05
2022-12-16T16:34:10.495Z,29.17
2022-12-16T16:39:30.972Z,29.27
2022-12-16T16:44:51.161Z,30.42
2022-12-16T16:50:18.981Z,30.10
2022-12-16T16:55:42.766Z,31.53
2022-12-16T17:01:02.980Z,28.67
2022-12-16T17:06:25.186Z,29.70
2022-12-16T17:11:47.385Z,34.40
2022-12-16T17:17:07.710Z,30.52
2022-12-16T17:22:29.403Z,31.65
2022-12-16T17:27:49.558Z,33.67
2022-12-16T17:33:09.932Z,30.55
2022-12-16T17:38:37.703Z,30.92
2022-12-16T17:43:57.939Z,29.08
2022-12-16T17:49:18.389Z,30.30
2022-12-16T17:54:40.592Z,30.02
2022-12-16T18:00:04.531Z,29.52
2022-12-16T18:05:38.876Z,29.27
2022-12-16T18:11:04.748Z,29.90
2022-12-16T18:16:25.109Z,30.15
2022-12-16T18:21:45.379Z,29.60
2022-12-16T18:27:07.119Z,29.05
2022-12-16T18:32:35.086Z,29.67
2022-12-16T18:37:55.527Z,31.20
2022-12-16T18:43:20.107Z,30.00
2022-12-16T18:48:40.342Z,36.55
2022-12-16T18:54:00.565Z,31.42
2022-12-16T18:59:22.454Z,30.65
2022-12-16T19:04:43.062Z,29.73
2022-12-16T19:10:03.279Z,29.40
2022-12-16T19:15:26.670Z,30.08
2022-12-16T19:20:46.917Z,28.30
2022-12-16T19:26:07.139Z,29.15
2022-12-16T19:31:32.664Z,32.53
2022-12-16T19:36:53.130Z,29.90
2022-12-16T19:42:13.925Z,30.52
2022-12-16T19:47:35.844Z,30.88
2022-12-16T19:52:56.189Z,30.80
2022-12-16T19:58:27.795Z,29.92
2022-12-16T20:03:50.270Z,30.25
2022-12-16T20:09:11.619Z,28.95
2022-12-16T20:14:31.811Z,29.15
2022-12-16T20:19:53.399Z,29.88
2022-12-16T20:25:16.696Z,32.00
2022-12-16T20:30:37.541Z,29.63
2022-12-16T20:36:14.007Z,29.85
2022-12-16T20:41:34.593Z,28.00
2022-12-16T20:52:37.491Z,28.67
2022-12-16T20:57:57.982Z,29.80
2022-12-16T21:03:18.819Z,28.27
2022-12-16T21:08:40.256Z,27.75
2022-12-16T21:13:57.007Z,27.63
2022-12-16T21:14:42.531Z,28.92
2022-12-16T21:19:17.521Z,26.75
2022-12-16T21:24:39.072Z,26.42
2022-12-16T21:29:59.371Z,29.08
2022-12-16T21:35:19.658Z,28.80
2022-12-16T21:40:43.610Z,27.92
2022-12-16T21:46:11.266Z,26.70
2022-12-16T21:51:32.515Z,29.15
2022-12-16T21:56:56.320Z,27.00
2022-12-16T22:02:17.594Z,28.13
2022-12-16T22:07:38.025Z,33.20
2022-12-16T22:12:59.526Z,26.52
2022-12-16T22:18:20.321Z,27.38
2022-12-16T22:23:41.065Z,26.65
2022-12-16T22:29:03.895Z,26.23
2022-12-16T22:34:25.622Z,29.00
2022-12-16T22:39:45.891Z,27.23
2022-12-16T22:45:07.246Z,28.73
2022-12-16T22:50:27.993Z,28.23
2022-12-16T22:55:48.324Z,28.90
2022-12-16T23:01:09.852Z,30.25
2022-12-16T23:06:30.342Z,29.38
2022-12-16T23:11:53.403Z,31.17
2022-12-16T23:17:18.567Z,31.58
2022-12-16T23:22:38.790Z,31.20
2022-12-16T23:27:58.968Z,31.52
2022-12-16T23:33:21.423Z,31.52
2022-12-16T23:38:41.529Z,31.80
2022-12-16T23:44:02.230Z,32.50
2022-12-16T23:49:24.052Z,33.35
2022-12-16T23:54:44.340Z,32.45
